Hartford, Connecticut
Traffic Map
Current Weather Conditions
Hartford, Connecticut
Clear
Clear
14°
Feels Like: 14°
Wind Chill: 14° Ceiling: Unl
Heat Index: 14° Visibility: 10mi
Dew Point: 10° Wind: 3mph
Humidity: 75% Direction: 180° (S)
Pressure: 30.24in Gusts: 0mph
Raw Report DataKHFD 250653Z AUTO 18003KT 10SM CLR 14/10 A3024 RMK AO2 SLP238 T01440100
Traffic Incident Summary
Active as of:
Severity:
Category:
InformationThere was an issue retrieving the traffic information for this location. Please try a different location or try again shortly.
Advertisements
Track Severe Weather on mobile